Time;durP1;ratioP1;P1;durP2;ratioP2;P2;SDS_P1;SDS_P2;PMS_P1;PMS_P2;Temp;Humidity;BMP_temperature;BMP_pressure;BME280_temperature;BME280_humidity;BME280_pressure;Samples;Min_cycle;Max_cycle;Signal;HPM_P1;HPM_P2
2022/08/19 00:00:17;;;;;;;14.77;10.30;;;18.30;99.90;;;;;;5028208;28;20079;-61
2022/08/19 00:02:43;;;;;;;12.63;9.50;;;18.30;99.90;;;;;;5028301;28;20113;-63
2022/08/19 00:05:10;;;;;;;12.88;9.73;;;18.20;99.90;;;;;;5029426;28;20025;-62
2022/08/19 00:07:37;;;;;;;11.27;8.88;;;18.20;99.90;;;;;;5028747;28;20021;-63
2022/08/19 00:10:04;;;;;;;12.15;9.02;;;18.30;99.90;;;;;;5030687;28;20471;-63
2022/08/19 00:12:30;;;;;;;16.00;9.20;;;18.20;99.90;;;;;;5029629;28;20033;-63
2022/08/19 00:14:55;;;;;;;13.70;9.68;;;18.20;99.90;;;;;;5028220;28;20034;-64
2022/08/19 00:17:21;;;;;;;13.30;9.88;;;18.20;99.90;;;;;;5021116;28;20033;-64
2022/08/19 00:19:46;;;;;;;16.52;10.48;;;18.20;99.90;;;;;;5033799;28;20026;-63
2022/08/19 00:22:12;;;;;;;17.05;9.43;;;18.20;99.90;;;;;;5027672;28;20040;-64
2022/08/19 00:24:38;;;;;;;14.57;8.93;;;18.20;99.90;;;;;;5028983;28;20029;-63
2022/08/19 00:27:05;;;;;;;13.85;10.27;;;18.20;99.90;;;;;;5028173;28;20029;-64
2022/08/19 00:29:30;;;;;;;14.27;9.60;;;18.10;99.90;;;;;;5028713;28;20017;-64
2022/08/19 00:31:59;;;;;;;14.32;9.73;;;18.10;99.90;;;;;;5027066;28;20500;-62
2022/08/19 00:34:28;;;;;;;13.57;8.57;;;18.10;99.90;;;;;;5034742;28;20847;-62
2022/08/19 00:36:55;;;;;;;15.02;9.07;;;18.10;99.90;;;;;;5028425;28;20063;-61
2022/08/19 00:39:21;;;;;;;13.98;9.38;;;18.00;99.90;;;;;;5029239;28;20033;-64
2022/08/19 00:41:49;;;;;;;17.23;10.00;;;18.00;99.90;;;;;;5029959;28;20029;-60
2022/08/19 00:44:16;;;;;;;20.20;10.13;;;18.00;99.90;;;;;;5028903;28;20029;-61
2022/08/19 00:46:44;;;;;;;24.38;12.55;;;18.10;99.90;;;;;;5025544;28;20779;-63
2022/08/19 00:49:19;;;;;;;18.73;10.68;;;18.10;99.90;;;;;;5031960;28;20048;-62
2022/08/19 00:51:47;;;;;;;27.15;11.88;;;18.20;99.90;;;;;;5027718;28;20029;-61
2022/08/19 00:54:14;;;;;;;19.10;11.52;;;18.30;99.90;;;;;;5031638;28;20486;-62
2022/08/19 00:56:40;;;;;;;20.08;11.05;;;18.30;99.90;;;;;;5032396;28;20104;-62
2022/08/19 00:59:08;;;;;;;23.00;12.70;;;18.40;99.90;;;;;;5029659;28;20022;-62
2022/08/19 01:01:37;;;;;;;19.08;11.75;;;18.40;99.90;;;;;;5027022;28;20024;-63
2022/08/19 01:04:02;;;;;;;20.27;12.43;;;18.50;99.90;;;;;;5032919;28;20029;-62
2022/08/19 01:06:31;;;;;;;31.23;17.30;;;18.40;99.90;;;;;;5033271;28;20082;-62
2022/08/19 01:08:56;;;;;;;17.48;11.63;;;18.50;99.90;;;;;;5031809;28;20030;-62
2022/08/19 01:11:22;;;;;;;24.60;13.90;;;18.50;99.90;;;;;;5029645;28;20390;-61
2022/08/19 01:13:49;;;;;;;26.88;13.07;;;18.50;99.90;;;;;;5026743;28;20398;-62
2022/08/19 01:16:16;;;;;;;23.15;13.02;;;18.50;99.90;;;;;;5028315;28;20084;-62
2022/08/19 01:18:42;;;;;;;21.85;13.98;;;18.40;99.90;;;;;;5044612;28;20044;-62
2022/08/19 01:21:31;;;;;;;23.40;13.93;;;18.40;99.90;;;;;;5045149;28;20034;-62
2022/08/19 01:23:57;;;;;;;24.10;12.32;;;18.50;99.90;;;;;;5029173;28;20041;-62
2022/08/19 01:26:24;;;;;;;25.30;13.60;;;18.40;99.90;;;;;;5034702;28;20071;-62
2022/08/19 01:28:53;;;;;;;24.23;14.63;;;18.40;99.90;;;;;;5041293;28;20024;-63
2022/08/19 01:31:22;;;;;;;23.23;13.93;;;18.40;99.90;;;;;;5051222;28;20104;-63
2022/08/19 01:33:48;;;;;;;24.83;14.07;;;18.40;99.90;;;;;;5033283;28;20519;-62
2022/08/19 01:36:22;;;;;;;21.33;13.50;;;18.50;99.90;;;;;;5030696;28;20040;-63
2022/08/19 01:38:48;;;;;;;24.37;13.87;;;18.50;99.90;;;;;;5030243;28;20033;-62
2022/08/19 01:41:13;;;;;;;21.65;14.30;;;18.30;99.90;;;;;;5034118;28;20034;-61
2022/08/19 01:43:39;;;;;;;31.42;15.40;;;18.30;99.90;;;;;;5027877;28;20035;-62
2022/08/19 01:46:05;;;;;;;23.35;12.95;;;18.30;99.90;;;;;;5029043;28;20030;-61
2022/08/19 01:48:39;;;;;;;26.92;14.55;;;18.20;99.90;;;;;;5026664;28;20052;-61
2022/08/19 01:51:06;;;;;;;28.27;13.23;;;18.10;99.90;;;;;;5029426;28;20036;-61
2022/08/19 01:53:32;;;;;;;23.27;12.38;;;18.00;99.90;;;;;;5029625;28;20041;-63
2022/08/19 01:55:58;;;;;;;28.92;14.98;;;18.00;99.90;;;;;;5029569;28;20506;-63
2022/08/19 01:58:30;;;;;;;24.92;14.30;;;17.90;99.90;;;;;;5030608;28;20032;-63
2022/08/19 02:00:56;;;;;;;25.50;13.75;;;17.80;99.90;;;;;;5027730;28;20033;-63
2022/08/19 02:03:23;;;;;;;25.75;13.88;;;17.70;99.90;;;;;;5022481;28;20188;-63
2022/08/19 02:05:58;;;;;;;33.60;13.43;;;17.60;99.90;;;;;;5026961;28;20111;-64
2022/08/19 02:08:24;;;;;;;23.42;13.25;;;17.50;99.90;;;;;;5031108;28;20018;-63
2022/08/19 02:10:49;;;;;;;23.25;13.65;;;17.50;99.90;;;;;;5027389;28;20022;-63
2022/08/19 02:13:15;;;;;;;35.13;16.15;;;17.50;99.90;;;;;;5030327;28;20037;-63
2022/08/19 02:15:41;;;;;;;23.27;14.95;;;17.50;99.90;;;;;;5025382;28;20029;-62
2022/08/19 02:18:08;;;;;;;24.20;15.57;;;17.40;99.90;;;;;;5030180;28;20022;-63
2022/08/19 02:20:33;;;;;;;30.13;15.43;;;17.50;99.90;;;;;;5027970;28;20406;-64
2022/08/19 02:23:01;;;;;;;26.90;15.23;;;17.40;99.90;;;;;;5020907;23;20042;-66
2022/08/19 02:25:26;;;;;;;24.15;13.95;;;17.40;99.90;;;;;;5015795;28;20020;-66
2022/08/19 02:27:52;;;;;;;26.67;14.75;;;17.40;99.90;;;;;;5010292;28;20109;-69
2022/08/19 02:30:18;;;;;;;21.15;14.18;;;17.40;99.90;;;;;;5011806;28;20041;-66
2022/08/19 02:32:44;;;;;;;27.45;15.25;;;17.30;99.90;;;;;;5012996;28;20034;-67
2022/08/19 02:35:11;;;;;;;21.02;13.73;;;17.30;99.90;;;;;;5023365;28;20053;-66
2022/08/19 02:40:21;;;;;;;23.05;14.02;;;17.30;99.90;;;;;;5006205;28;20168;-66
2022/08/19 02:42:46;;;;;;;29.80;15.00;;;17.30;99.90;;;;;;5010806;28;20116;-67
2022/08/19 02:45:13;;;;;;;23.52;15.35;;;17.30;99.90;;;;;;5010357;28;20602;-66
2022/08/19 02:47:39;;;;;;;24.80;15.10;;;17.20;99.90;;;;;;5004962;28;20033;-67
2022/08/19 02:50:06;;;;;;;24.02;15.45;;;17.20;99.90;;;;;;5013387;28;20030;-66
2022/08/19 02:52:33;;;;;;;34.17;15.80;;;17.20;99.90;;;;;;5013409;28;20022;-67
2022/08/19 02:54:59;;;;;;;26.42;15.23;;;17.10;99.90;;;;;;5018164;28;20022;-66
2022/08/19 02:57:25;;;;;;;24.92;14.40;;;17.10;99.90;;;;;;5009660;28;20022;-66
2022/08/19 02:59:51;;;;;;;22.60;14.25;;;17.10;99.90;;;;;;5015254;28;20097;-66
2022/08/19 03:02:17;;;;;;;24.38;14.35;;;17.10;99.90;;;;;;5004936;28;20033;-67
2022/08/19 03:04:43;;;;;;;22.63;14.38;;;17.20;99.90;;;;;;5010328;28;20044;-67
2022/08/19 03:07:09;;;;;;;22.13;13.65;;;17.20;99.90;;;;;;5015324;28;20036;-67
2022/08/19 03:09:37;;;;;;;25.42;14.57;;;17.10;99.90;;;;;;5004458;28;20026;-67
2022/08/19 03:12:04;;;;;;;22.45;14.20;;;17.10;99.90;;;;;;5008697;28;20021;-67
2022/08/19 03:14:33;;;;;;;25.25;15.20;;;17.10;99.90;;;;;;5023163;28;20030;-66
2022/08/19 03:17:00;;;;;;;25.90;14.27;;;17.00;99.90;;;;;;5009280;28;20511;-66
2022/08/19 03:19:25;;;;;;;23.83;14.35;;;17.00;99.90;;;;;;5011367;28;20538;-67
2022/08/19 03:21:52;;;;;;;29.23;16.55;;;17.00;99.90;;;;;;5012871;28;20555;-66
2022/08/19 03:24:18;;;;;;;26.50;15.73;;;17.00;99.90;;;;;;5004461;28;20022;-67
2022/08/19 03:26:51;;;;;;;28.70;17.42;;;17.00;99.90;;;;;;5007857;28;20109;-67
2022/08/19 03:29:17;;;;;;;26.45;15.77;;;16.90;99.90;;;;;;5005796;28;20030;-67
2022/08/19 03:31:43;;;;;;;30.00;16.35;;;16.90;99.90;;;;;;5004769;28;20084;-67
2022/08/19 03:34:26;;;;;;;32.33;16.73;;;16.90;99.90;;;;;;5008666;28;20021;-66
2022/08/19 03:36:54;;;;;;;27.38;16.23;;;17.00;99.90;;;;;;5008487;28;20395;-67
2022/08/19 03:39:19;;;;;;;28.52;16.02;;;16.90;99.90;;;;;;5010536;28;20062;-67
2022/08/19 03:41:49;;;;;;;27.13;16.05;;;16.90;99.90;;;;;;5007430;28;20040;-67
2022/08/19 03:44:19;;;;;;;29.55;17.08;;;16.90;99.90;;;;;;5010605;28;20096;-67
2022/08/19 03:46:47;;;;;;;30.13;16.88;;;16.90;99.90;;;;;;5008181;28;20026;-67
2022/08/19 03:49:13;;;;;;;28.35;16.45;;;16.80;99.90;;;;;;5015408;28;20026;-66
2022/08/19 03:51:39;;;;;;;30.67;17.45;;;16.80;99.90;;;;;;5016937;28;20036;-67
2022/08/19 03:54:08;;;;;;;29.60;17.85;;;16.80;99.90;;;;;;5010373;28;20040;-68
2022/08/19 03:56:35;;;;;;;29.38;15.77;;;16.80;99.90;;;;;;5007977;28;20030;-67
2022/08/19 03:59:01;;;;;;;25.45;17.75;;;16.70;99.90;;;;;;5011156;28;20021;-66
2022/08/19 04:01:28;;;;;;;27.98;17.70;;;16.70;99.90;;;;;;5005320;28;20068;-66
2022/08/19 04:03:54;;;;;;;27.85;17.13;;;16.70;99.90;;;;;;5009195;28;20610;-66
2022/08/19 04:06:23;;;;;;;31.58;18.45;;;16.70;99.90;;;;;;5010761;28;20050;-66
2022/08/19 04:08:50;;;;;;;30.38;18.20;;;16.70;99.90;;;;;;5007499;28;20133;-66
2022/08/19 04:11:22;;;;;;;30.80;20.17;;;16.70;99.90;;;;;;4996330;28;20033;-66
2022/08/19 04:13:50;;;;;;;24.35;17.20;;;16.70;99.90;;;;;;5008023;28;20045;-66
2022/08/19 04:16:17;;;;;;;29.67;17.60;;;16.70;99.90;;;;;;5005281;28;20076;-68
2022/08/19 04:18:43;;;;;;;31.17;19.08;;;16.70;99.90;;;;;;5017641;28;20139;-67
2022/08/19 04:21:17;;;;;;;35.67;20.90;;;16.70;99.90;;;;;;5014776;28;20542;-66
2022/08/19 04:23:42;;;;;;;31.95;17.55;;;16.70;99.90;;;;;;5010708;28;20026;-67
2022/08/19 04:26:13;;;;;;;30.88;19.60;;;16.80;99.90;;;;;;5007405;28;20032;-67
2022/08/19 04:28:39;;;;;;;31.25;18.30;;;16.80;99.90;;;;;;5013471;28;20026;-67
2022/08/19 04:31:05;;;;;;;31.30;18.15;;;16.90;99.90;;;;;;5010524;28;20045;-67
2022/08/19 04:33:31;;;;;;;38.72;20.95;;;16.90;99.90;;;;;;5013426;28;20025;-67
2022/08/19 04:35:58;;;;;;;36.70;22.02;;;17.00;99.90;;;;;;5006112;28;20029;-67
2022/08/19 04:38:23;;;;;;;36.17;21.02;;;16.90;99.90;;;;;;5011771;28;20024;-66
2022/08/19 04:43:37;;;;;;;37.97;21.48;;;17.10;99.90;;;;;;4996259;28;20388;-66
2022/08/19 04:46:11;;;;;;;33.58;21.50;;;17.10;99.90;;;;;;5007054;28;20046;-67
2022/08/19 04:48:37;;;;;;;;;;;17.20;99.90;;;;;;5007858;28;20102;-67
2022/08/19 04:51:07;;;;;;;33.92;21.27;;;17.10;99.90;;;;;;5011720;28;19916;-66
2022/08/19 04:53:35;;;;;;;38.75;22.02;;;17.10;99.90;;;;;;5004228;28;20080;-67
2022/08/19 04:56:16;;;;;;;31.30;18.45;;;17.10;99.90;;;;;;5012156;28;20399;-67
2022/08/19 04:58:43;;;;;;;36.75;21.67;;;17.10;99.90;;;;;;5009160;28;20036;-66
2022/08/19 05:01:12;;;;;;;31.20;19.17;;;17.10;99.90;;;;;;5005914;28;20026;-67
2022/08/19 05:03:39;;;;;;;38.60;22.23;;;17.10;99.90;;;;;;5015911;28;20105;-67
2022/08/19 05:06:10;;;;;;;34.42;21.88;;;17.10;99.90;;;;;;5008338;28;20052;-65
2022/08/19 05:08:41;;;;;;;41.33;24.10;;;17.10;99.90;;;;;;5007183;28;20022;-67
2022/08/19 05:11:14;;;;;;;41.60;24.75;;;17.20;99.90;;;;;;5007983;28;20055;-66
2022/08/19 05:13:40;;;;;;;34.00;22.45;;;17.20;99.90;;;;;;5009526;28;20108;-67
2022/08/19 05:16:06;;;;;;;34.47;20.10;;;17.20;99.90;;;;;;5010539;28;20037;-66
2022/08/19 05:24:07;;;;;;;48.15;30.45;;;17.40;99.90;;;;;;5012686;28;20070;-66
2022/08/19 05:26:32;;;;;;;55.63;32.67;;;17.50;99.90;;;;;;5011877;28;20074;-66
2022/08/19 05:28:58;;;;;;;59.13;34.95;;;17.70;99.90;;;;;;5008744;28;20022;-66
2022/08/19 05:31:23;;;;;;;63.85;35.50;;;17.80;99.90;;;;;;5008719;28;20553;-67
2022/08/19 05:33:50;;;;;;;55.72;34.88;;;18.00;99.90;;;;;;5013492;28;20049;-67
2022/08/19 05:36:15;;;;;;;58.17;36.22;;;18.10;99.90;;;;;;5016132;28;20017;-67
2022/08/19 05:38:41;;;;;;;52.60;33.00;;;18.20;99.90;;;;;;5010324;28;20045;-67
2022/08/19 05:41:12;;;;;;;57.08;35.70;;;18.30;99.90;;;;;;5009490;28;20092;-66
2022/08/19 05:43:37;;;;;;;62.78;34.20;;;18.40;99.90;;;;;;5015167;28;20017;-65
2022/08/19 05:46:08;;;;;;;62.47;34.63;;;18.40;99.90;;;;;;5008529;28;20037;-64
2022/08/19 05:48:35;;;;;;;57.80;35.13;;;18.40;99.90;;;;;;5019190;28;20018;-65
2022/08/19 05:51:08;;;;;;;55.15;32.80;;;18.50;99.90;;;;;;5017220;28;20810;-65
2022/08/19 05:53:34;;;;;;;67.30;36.80;;;18.40;99.90;;;;;;5028474;28;20398;-64
2022/08/19 05:56:10;;;;;;;63.08;36.95;;;18.40;99.90;;;;;;5009397;28;20492;-67
2022/08/19 05:58:37;;;;;;;68.85;35.95;;;18.40;99.90;;;;;;4992367;28;20105;-67
2022/08/19 06:01:08;;;;;;;60.33;35.20;;;18.40;99.90;;;;;;5008438;28;20045;-66
2022/08/19 06:03:34;;;;;;;58.22;36.20;;;18.40;99.90;;;;;;5010662;28;20057;-67
2022/08/19 06:06:00;;;;;;;55.58;34.17;;;18.40;99.90;;;;;;5029624;28;20041;-66
2022/08/19 06:08:26;;;;;;;56.55;34.35;;;18.40;99.90;;;;;;5028496;28;20045;-67
2022/08/19 06:10:53;;;;;;;61.30;35.13;;;18.50;99.90;;;;;;5008041;28;20056;-67
2022/08/19 06:13:19;;;;;;;55.63;34.80;;;18.60;99.90;;;;;;5013273;28;20026;-67
2022/08/19 06:15:46;;;;;;;54.90;33.47;;;18.60;99.90;;;;;;5013021;28;20401;-66
2022/08/19 06:18:12;;;;;;;61.17;35.28;;;18.60;99.90;;;;;;5013052;28;20036;-68
2022/08/19 06:20:38;;;;;;;58.28;35.45;;;18.70;99.90;;;;;;5013623;28;20033;-66
2022/08/19 06:23:03;;;;;;;54.25;34.75;;;18.80;99.90;;;;;;5012144;28;20045;-67
2022/08/19 06:25:30;;;;;;;70.95;36.47;;;18.80;99.90;;;;;;5012843;28;20080;-67
2022/08/19 06:27:55;;;;;;;61.67;35.58;;;18.90;99.90;;;;;;5013649;28;20471;-68
2022/08/19 06:30:21;;;;;;;63.35;38.83;;;19.00;99.90;;;;;;5013145;28;20033;-67
2022/08/19 06:32:46;;;;;;;66.53;39.75;;;19.00;99.90;;;;;;5012333;28;20034;-66
2022/08/19 06:35:14;;;;;;;66.80;37.63;;;19.00;99.90;;;;;;5013412;28;20470;-66
2022/08/19 06:37:40;;;;;;;62.17;37.85;;;19.10;99.90;;;;;;5013302;28;20018;-66
2022/08/19 06:40:08;;;;;;;59.45;37.95;;;19.10;99.90;;;;;;5013977;28;20034;-65
2022/08/19 06:42:34;;;;;;;59.28;37.03;;;19.20;99.90;;;;;;5018378;28;20061;-66
2022/08/19 06:45:03;;;;;;;59.65;33.55;;;19.30;99.90;;;;;;5015777;28;20065;-66
2022/08/19 06:47:30;;;;;;;66.07;38.40;;;19.40;99.90;;;;;;5015597;28;20026;-67
2022/08/19 06:49:59;;;;;;;60.10;36.60;;;19.40;99.90;;;;;;5017866;28;20053;-66
2022/08/19 06:52:25;;;;;;;68.43;35.03;;;19.50;99.90;;;;;;5015815;28;20083;-66
2022/08/19 06:54:50;;;;;;;62.60;37.50;;;19.50;99.90;;;;;;5014340;28;20030;-66
2022/08/19 06:57:16;;;;;;;62.03;35.85;;;19.60;99.90;;;;;;5012999;28;20037;-66
2022/08/19 06:59:42;;;;;;;62.53;35.45;;;19.60;99.90;;;;;;5016413;28;20399;-66
2022/08/19 07:02:07;;;;;;;55.75;34.28;;;19.80;99.90;;;;;;5021784;28;20046;-66
2022/08/19 07:04:35;;;;;;;62.15;35.63;;;19.90;99.90;;;;;;5030179;28;20041;-66
2022/08/19 07:07:07;;;;;;;58.15;34.47;;;19.90;99.90;;;;;;5012435;28;20034;-66
2022/08/19 07:09:34;;;;;;;62.50;34.17;;;19.90;99.90;;;;;;5015203;28;20096;-65
2022/08/19 07:12:00;;;;;;;59.15;33.13;;;20.00;99.90;;;;;;5032170;28;20376;-67
2022/08/19 07:14:27;;;;;;;60.13;34.00;;;20.10;99.90;;;;;;5024985;28;20034;-67
2022/08/19 07:16:54;;;;;;;59.63;34.22;;;20.20;99.90;;;;;;5013633;28;20060;-66
2022/08/19 07:19:22;;;;;;;55.65;32.97;;;20.20;99.90;;;;;;5011779;28;20550;-65
2022/08/19 07:21:50;;;;;;;59.40;34.15;;;20.30;99.90;;;;;;5008205;28;20025;-67
2022/08/19 07:24:16;;;;;;;57.13;32.45;;;20.30;99.90;;;;;;5012793;28;20026;-67
2022/08/19 07:26:43;;;;;;;63.05;34.65;;;20.40;99.90;;;;;;5019542;28;20402;-67
2022/08/19 07:29:10;;;;;;;58.95;33.40;;;20.50;99.90;;;;;;5023861;28;20499;-65
2022/08/19 07:31:36;;;;;;;66.53;33.17;;;20.50;99.90;;;;;;5012102;28;20038;-67
2022/08/19 07:34:07;;;;;;;59.90;33.67;;;20.50;99.90;;;;;;5017225;28;20029;-65
2022/08/19 07:36:36;;;;;;;62.13;32.10;;;20.40;99.90;;;;;;5005528;28;20025;-67
2022/08/19 07:39:06;;;;;;;56.60;32.35;;;20.50;99.90;;;;;;5013010;28;20024;-67
2022/08/19 07:41:32;;;;;;;58.92;32.22;;;20.50;99.90;;;;;;5012211;28;20026;-67
2022/08/19 07:44:03;;;;;;;66.43;34.70;;;20.50;99.90;;;;;;5012064;28;20032;-66
2022/08/19 07:46:32;;;;;;;54.28;31.58;;;20.50;99.90;;;;;;5005908;28;20083;-68
2022/08/19 07:48:58;;;;;;;58.53;35.53;;;20.50;99.90;;;;;;5012666;28;20029;-66
2022/08/19 07:51:24;;;;;;;64.85;35.45;;;20.50;99.90;;;;;;5029716;28;20470;-67
2022/08/19 07:53:50;;;;;;;70.65;37.17;;;20.50;99.90;;;;;;5012593;28;20033;-67
2022/08/19 07:56:17;;;;;;;68.78;37.17;;;20.40;99.90;;;;;;5012442;28;20411;-67
2022/08/19 07:58:45;;;;;;;66.82;36.40;;;20.40;99.90;;;;;;5008974;28;20517;-67
2022/08/19 08:01:17;;;;;;;71.18;37.00;;;20.40;99.90;;;;;;5031247;28;20065;-66
2022/08/19 08:09:20;;;;;;;68.40;37.13;;;20.40;99.90;;;;;;5010752;28;20045;-66
2022/08/19 08:11:54;;;;;;;71.07;37.85;;;20.50;99.90;;;;;;5012273;28;20037;-67
2022/08/19 08:14:31;;;;;;;66.30;36.28;;;20.50;99.90;;;;;;5011669;28;20151;-66
2022/08/19 08:16:57;;;;;;;76.28;38.35;;;20.70;99.90;;;;;;5011769;28;20030;-66
2022/08/19 08:19:25;;;;;;;76.90;39.80;;;20.80;99.90;;;;;;5007837;28;20520;-65
2022/08/19 08:21:51;;;;;;;66.53;35.47;;;20.80;99.90;;;;;;5030260;28;20060;-67
2022/08/19 08:24:17;;;;;;;75.63;38.13;;;20.90;99.90;;;;;;5049282;22;20053;-62
2022/08/19 08:26:46;;;;;;;69.95;36.17;;;20.90;99.90;;;;;;5023021;28;20079;-62
2022/08/19 08:29:12;;;;;;;72.07;36.60;;;20.90;99.90;;;;;;5017539;28;20022;-61
2022/08/19 08:31:40;;;;;;;64.95;37.50;;;21.00;99.90;;;;;;5009839;28;20026;-62
2022/08/19 08:34:06;;;;;;;71.05;37.88;;;21.10;99.90;;;;;;5010338;28;20030;-62
2022/08/19 08:36:35;;;;;;;75.78;40.88;;;21.10;99.90;;;;;;5015824;28;20092;-60
2022/08/19 08:39:00;;;;;;;78.68;37.13;;;21.10;99.90;;;;;;5010313;28;20088;-60
2022/08/19 08:41:48;;;;;;;78.47;38.38;;;21.20;99.90;;;;;;5014773;28;20042;-61
2022/08/19 08:44:21;;;;;;;77.60;39.53;;;21.30;99.90;;;;;;5010694;28;20026;-60
2022/08/19 08:46:51;;;;;;;78.95;38.08;;;21.50;99.90;;;;;;5015146;28;20061;-62
2022/08/19 08:49:26;;;;;;;75.03;39.05;;;21.60;99.90;;;;;;5030324;28;20092;-63
2022/08/19 08:52:01;;;;;;;81.20;38.35;;;21.60;99.90;;;;;;5022995;28;20518;-62
2022/08/19 08:54:35;;;;;;;77.65;37.65;;;21.70;99.90;;;;;;5010569;28;20376;-62
2022/08/19 08:57:04;;;;;;;85.28;43.03;;;21.70;99.90;;;;;;5010465;28;20025;-62
2022/08/19 08:59:33;;;;;;;84.53;39.88;;;21.80;99.90;;;;;;5024768;28;20636;-61
2022/08/19 09:01:59;;;;;;;76.25;38.10;;;21.90;99.90;;;;;;5021727;28;20426;-61
2022/08/19 09:04:25;;;;;;;82.72;37.92;;;22.10;99.90;;;;;;5024344;28;20026;-61
2022/08/19 09:07:23;;;;;;;68.10;37.83;;;22.30;99.90;;;;;;5016585;28;20038;-60
2022/08/19 09:09:51;;;;;;;70.32;36.13;;;22.50;99.90;;;;;;5009686;28;20022;-62
2022/08/19 09:12:44;;;;;;;80.05;40.22;;;22.60;99.90;;;;;;5014400;28;20080;-62
2022/08/19 09:15:12;;;;;;;68.38;36.30;;;22.60;99.90;;;;;;5009302;28;20060;-61
2022/08/19 09:17:38;;;;;;;71.07;37.28;;;22.60;99.90;;;;;;5006077;28;20061;-61
2022/08/19 09:20:08;;;;;;;65.95;35.95;;;22.80;99.90;;;;;;5010531;28;20366;-61
2022/08/19 09:22:35;;;;;;;59.00;32.53;;;22.80;99.90;;;;;;5014638;28;20553;-61
2022/08/19 09:25:01;;;;;;;58.85;31.80;;;22.80;99.90;;;;;;5009336;28;20034;-61
2022/08/19 09:27:29;;;;;;;52.33;29.13;;;22.90;99.90;;;;;;5014393;28;20105;-61
2022/08/19 09:29:55;;;;;;;47.15;28.00;;;23.10;99.90;;;;;;5006171;28;20022;-61
2022/08/19 09:32:22;;;;;;;42.42;25.23;;;23.20;99.90;;;;;;5001219;28;20025;-63
2022/08/19 09:34:47;;;;;;;44.40;25.38;;;23.20;99.90;;;;;;5001021;28;20575;-60
2022/08/19 09:37:14;;;;;;;44.25;26.52;;;23.20;99.90;;;;;;4998860;28;20038;-61
2022/08/19 09:39:40;;;;;;;42.30;26.13;;;23.30;99.90;;;;;;5015208;28;20395;-61
2022/08/19 09:42:13;;;;;;;40.45;23.92;;;23.40;99.90;;;;;;5013594;28;20076;-62
2022/08/19 09:44:40;;;;;;;43.47;24.17;;;23.60;99.90;;;;;;5019445;28;20022;-62
2022/08/19 09:47:06;;;;;;;32.72;20.30;;;23.60;99.90;;;;;;5015941;28;21794;-62
2022/08/19 09:49:33;;;;;;;39.08;20.65;;;23.70;99.90;;;;;;5021852;28;20017;-62
2022/08/19 09:51:58;;;;;;;51.38;24.88;;;23.70;99.90;;;;;;5011848;28;20033;-62
2022/08/19 09:54:24;;;;;;;33.70;22.20;;;23.70;99.90;;;;;;5013782;28;20030;-60
2022/08/19 09:56:50;;;;;;;35.13;20.77;;;23.70;99.90;;;;;;5017133;28;20045;-61
2022/08/19 09:59:16;;;;;;;47.22;25.60;;;23.90;99.90;;;;;;5022375;28;20114;-62
2022/08/19 10:01:41;;;;;;;34.45;20.15;;;24.00;99.90;;;;;;5013706;28;20601;-62
2022/08/19 10:04:10;;;;;;;34.85;22.48;;;24.00;99.90;;;;;;5017643;28;20055;-62
2022/08/19 10:06:39;;;;;;;32.67;20.83;;;24.10;99.90;;;;;;5014109;28;20021;-61
2022/08/19 10:09:07;;;;;;;34.83;22.17;;;24.30;99.90;;;;;;5015240;28;20943;-60
2022/08/19 10:11:34;;;;;;;31.90;21.38;;;24.50;99.90;;;;;;5032675;28;20033;-62
2022/08/19 10:14:01;;;;;;;27.02;17.42;;;24.40;99.90;;;;;;5022982;28;20113;-63
2022/08/19 10:16:27;;;;;;;26.90;17.42;;;24.60;99.90;;;;;;5013503;28;20022;-62
2022/08/19 10:18:54;;;;;;;29.73;19.80;;;24.60;99.90;;;;;;5016050;28;20028;-62
2022/08/19 10:21:26;;;;;;;22.13;14.88;;;24.70;99.90;;;;;;5012674;28;20044;-59
2022/08/19 10:23:55;;;;;;;19.70;11.85;;;25.00;99.90;;;;;;5012264;28;20029;-63
2022/08/19 10:26:29;;;;;;;27.60;17.38;;;25.20;99.90;;;;;;5018097;28;20502;-62
2022/08/19 10:28:56;;;;;;;23.05;15.23;;;25.20;99.90;;;;;;5017837;28;20538;-62
2022/08/19 10:31:26;;;;;;;26.73;14.57;;;25.30;99.90;;;;;;5021959;28;20034;-63
2022/08/19 10:33:57;;;;;;;19.67;12.55;;;25.60;99.90;;;;;;5027681;28;20025;-62
2022/08/19 10:36:28;;;;;;;17.90;13.10;;;25.60;99.90;;;;;;5013246;28;20161;-63
2022/08/19 10:38:58;;;;;;;17.60;12.60;;;25.50;99.90;;;;;;5016739;28;20056;-61
2022/08/19 10:41:26;;;;;;;27.83;17.45;;;25.50;99.90;;;;;;5032192;28;20026;-61
2022/08/19 10:43:54;;;;;;;20.75;13.88;;;25.50;99.90;;;;;;5021093;28;20114;-61
2022/08/19 10:46:21;;;;;;;26.77;13.85;;;26.10;99.90;;;;;;5017991;28;20545;-62
2022/08/19 10:48:48;;;;;;;24.65;14.75;;;26.00;99.90;;;;;;5015761;28;20371;-61
2022/08/19 10:53:59;;;;;;;20.80;13.23;;;25.20;99.90;;;;;;5008227;28;20056;-61
2022/08/19 10:59:12;;;;;;;17.65;12.98;;;25.10;99.90;;;;;;5015662;28;20044;-62
2022/08/19 11:01:38;;;;;;;25.75;17.50;;;25.30;99.90;;;;;;5013256;28;20028;-62
2022/08/19 11:04:04;;;;;;;27.92;17.55;;;25.70;99.90;;;;;;5017145;28;20902;-61
2022/08/19 11:06:32;;;;;;;38.70;19.00;;;25.60;99.90;;;;;;5010010;28;20026;-61
2022/08/19 11:08:59;;;;;;;25.10;16.75;;;25.40;99.90;;;;;;5015037;28;20419;-62
2022/08/19 11:11:26;;;;;;;25.83;15.35;;;25.50;99.90;;;;;;5011236;28;20032;-61
2022/08/19 11:13:52;;;;;;;27.35;16.67;;;25.70;99.90;;;;;;5008768;28;20029;-61
2022/08/19 11:16:23;;;;;;;22.25;15.55;;;25.50;99.90;;;;;;5002513;28;20471;-60
2022/08/19 11:18:52;;;;;;;24.70;15.48;;;25.40;99.90;;;;;;5011647;28;20199;-59
2022/08/19 11:21:19;;;;;;;25.15;13.93;;;25.60;99.90;;;;;;5011446;28;20034;-61
2022/08/19 11:23:46;;;;;;;18.25;12.85;;;25.80;99.90;;;;;;5016161;28;20036;-58
2022/08/19 11:26:14;;;;;;;21.10;14.02;;;26.20;99.90;;;;;;5011896;28;20041;-58
2022/08/19 11:28:40;;;;;;;19.48;12.40;;;26.50;99.90;;;;;;5011877;28;20018;-60
2022/08/19 11:31:13;;;;;;;16.02;12.23;;;26.30;99.90;;;;;;5011900;28;20476;-62
2022/08/19 11:33:40;;;;;;;15.98;12.35;;;26.30;99.90;;;;;;5011968;28;20022;-61
2022/08/19 11:36:07;;;;;;;15.23;11.00;;;26.50;99.90;;;;;;5012293;28;20044;-61
2022/08/19 11:38:34;;;;;;;20.48;12.48;;;26.30;99.90;;;;;;5009826;28;20018;-60
2022/08/19 11:41:04;;;;;;;21.17;12.63;;;26.10;99.90;;;;;;5000899;28;20085;-62
2022/08/19 11:43:30;;;;;;;22.30;13.55;;;25.90;99.90;;;;;;5007674;28;20041;-61
2022/08/19 11:45:57;;;;;;;20.45;12.77;;;25.80;99.90;;;;;;5011303;28;20025;-61
2022/08/19 11:48:24;;;;;;;18.77;13.25;;;25.70;99.90;;;;;;5013199;28;20160;-61
2022/08/19 11:50:51;;;;;;;17.52;12.40;;;25.50;99.90;;;;;;5029744;28;20025;-61
2022/08/19 11:53:19;;;;;;;19.52;12.88;;;25.20;99.90;;;;;;5026952;28;20032;-62
2022/08/19 11:55:46;;;;;;;18.42;12.80;;;25.20;99.90;;;;;;5013462;28;20044;-61
2022/08/19 11:58:13;;;;;;;15.95;11.68;;;25.40;99.90;;;;;;5012411;28;20459;-60
2022/08/19 12:00:39;;;;;;;22.75;13.25;;;25.90;99.90;;;;;;5027493;28;20018;-61
2022/08/19 12:03:05;;;;;;;25.63;12.70;;;26.40;99.90;;;;;;5021900;28;20053;-60
2022/08/19 12:05:31;;;;;;;17.92;12.93;;;26.50;99.90;;;;;;5011988;28;20515;-61
2022/08/19 12:07:56;;;;;;;26.55;13.68;;;26.50;99.90;;;;;;5011212;28;20062;-61
2022/08/19 12:10:23;;;;;;;15.88;11.27;;;26.50;99.90;;;;;;5012730;28;20230;-62
2022/08/19 12:12:48;;;;;;;15.98;10.68;;;26.60;99.90;;;;;;5017095;28;20029;-67
2022/08/19 12:15:14;;;;;;;14.52;11.18;;;27.00;99.90;;;;;;5007153;28;20234;-62
2022/08/19 12:17:43;;;;;;;16.58;10.23;;;27.30;99.90;;;;;;5008313;28;20122;-62
2022/08/19 12:20:13;;;;;;;13.48;9.05;;;27.50;99.90;;;;;;5014615;28;20058;-62
2022/08/19 12:22:40;;;;;;;13.57;8.93;;;27.50;99.90;;;;;;5017811;28;20599;-62
2022/08/19 12:25:08;;;;;;;16.40;8.73;;;27.70;99.90;;;;;;5016608;28;20056;-62
2022/08/19 12:27:35;;;;;;;11.95;8.77;;;28.10;99.90;;;;;;5012216;28;20109;-62
2022/08/19 12:30:02;;;;;;;12.93;8.18;;;28.00;99.90;;;;;;5012694;28;20035;-62
2022/08/19 12:32:28;;;;;;;16.50;8.90;;;28.20;99.90;;;;;;5012145;28;20038;-62
2022/08/19 12:34:54;;;;;;;13.73;8.68;;;28.10;99.90;;;;;;5011487;28;20107;-61
2022/08/19 12:37:20;;;;;;;16.77;8.02;;;28.10;99.90;;;;;;5012183;28;20411;-61
2022/08/19 12:39:46;;;;;;;14.52;9.02;;;28.20;99.90;;;;;;5017456;28;20033;-61
2022/08/19 12:42:13;;;;;;;14.13;8.77;;;28.40;99.90;;;;;;5015358;28;20037;-61
2022/08/19 12:44:41;;;;;;;16.83;10.35;;;27.90;99.90;;;;;;5012014;28;20018;-60
2022/08/19 12:47:08;;;;;;;16.58;10.20;;;27.50;99.90;;;;;;5012509;28;20026;-61
2022/08/19 12:49:36;;;;;;;19.38;10.13;;;27.20;99.90;;;;;;5010543;28;20632;-62
2022/08/19 12:52:05;;;;;;;19.50;12.60;;;27.20;99.90;;;;;;5007636;28;20033;-60